Time;durP1;ratioP1;P1;durP2;ratioP2;P2;SDS_P1;SDS_P2;PMS_P1;PMS_P2;Temp;Humidity;BMP_temperature;BMP_pressure;BME280_temperature;BME280_humidity;BME280_pressure;Samples;Min_cycle;Max_cycle;Signal;HPM_P1;HPM_P2
2023/06/30 00:02:10;;;;;;;11.52;2.47;;;;;;;16.46;100.00;101293.78;5010016;28;20050;-59
2023/06/30 00:04:40;;;;;;;11.30;2.95;;;;;;;16.37;100.00;101290.09;5010143;28;20056;-59
2023/06/30 00:07:09;;;;;;;11.93;2.50;;;;;;;16.30;100.00;101291.56;5010699;28;21013;-60
2023/06/30 00:09:37;;;;;;;9.32;2.30;;;;;;;16.35;100.00;101285.88;5007780;28;20042;-58
2023/06/30 00:12:07;;;;;;;9.68;1.98;;;;;;;16.22;100.00;101294.00;5007262;28;20096;-58
2023/06/30 00:14:35;;;;;;;7.90;2.08;;;;;;;16.27;100.00;101302.44;5007366;28;20573;-59
2023/06/30 00:17:04;;;;;;;10.27;2.33;;;;;;;16.34;100.00;101294.81;5009949;28;20038;-58
2023/06/30 00:19:32;;;;;;;8.45;2.20;;;;;;;16.29;100.00;101289.03;5007694;28;20046;-57
2023/06/30 00:22:02;;;;;;;7.85;2.15;;;;;;;16.24;100.00;101278.81;5006282;28;20050;-58
2023/06/30 00:24:30;;;;;;;10.35;2.22;;;;;;;16.18;100.00;101279.31;5007480;28;20056;-59
2023/06/30 00:26:59;;;;;;;8.25;2.05;;;;;;;16.20;100.00;101277.38;5011591;28;20045;-59
2023/06/30 00:29:27;;;;;;;13.40;2.70;;;;;;;16.11;100.00;101278.97;5010894;28;20045;-59
2023/06/30 00:31:55;;;;;;;8.70;2.05;;;;;;;16.04;100.00;101286.56;5014686;28;20539;-60
2023/06/30 00:34:24;;;;;;;5.70;1.83;;;;;;;15.98;100.00;101273.81;5015474;28;20056;-57
2023/06/30 00:36:52;;;;;;;7.75;2.05;;;;;;;15.94;100.00;101275.03;5013569;28;20049;-58
2023/06/30 00:39:22;;;;;;;9.77;2.50;;;;;;;15.98;100.00;101279.13;5011416;28;20121;-57
2023/06/30 00:41:50;;;;;;;5.45;1.90;;;;;;;16.00;100.00;101281.66;5010335;28;20066;-59
2023/06/30 00:44:19;;;;;;;7.68;1.70;;;;;;;16.00;100.00;101281.66;5010660;28;20038;-58
2023/06/30 00:46:47;;;;;;;8.85;1.85;;;;;;;15.86;100.00;101282.78;5015104;28;20409;-58
2023/06/30 00:49:15;;;;;;;5.28;2.28;;;;;;;15.82;100.00;101282.16;5015142;28;20054;-58
2023/06/30 00:51:44;;;;;;;7.47;2.40;;;;;;;15.75;100.00;101282.75;5013616;28;20046;-59
2023/06/30 00:54:13;;;;;;;7.82;2.30;;;;;;;15.75;100.00;101274.78;5015093;28;20088;-58
2023/06/30 00:56:42;;;;;;;8.75;2.40;;;;;;;15.75;100.00;101277.44;5011763;28;20041;-58
2023/06/30 00:59:11;;;;;;;7.70;2.08;;;;;;;15.67;100.00;101278.91;5010871;28;20769;-57
2023/06/30 01:01:48;;;;;;;7.57;1.98;;;;;;;15.62;100.00;101280.25;5013455;28;20544;-57
2023/06/30 01:04:25;;;;;;;7.20;2.35;;;;;;;15.55;100.00;101279.88;5010407;28;20062;-58
2023/06/30 01:07:03;;;;;;;6.72;1.88;;;;;;;15.53;100.00;101277.38;5009180;28;20157;-59
2023/06/30 01:09:37;;;;;;;8.38;2.58;;;;;;;15.53;100.00;101280.00;5010929;28;20049;-58
2023/06/30 01:12:08;;;;;;;11.80;2.30;;;;;;;15.41;100.00;101278.34;5011204;28;20704;-58
2023/06/30 01:14:39;;;;;;;8.75;2.40;;;;;;;15.46;100.00;101277.97;5010533;28;20045;-58
2023/06/30 01:17:08;;;;;;;11.13;2.60;;;;;;;15.53;100.00;101282.66;5009622;28;20064;-59
2023/06/30 01:19:44;;;;;;;7.55;2.28;;;;;;;15.52;100.00;101288.09;5010909;28;20042;-59
2023/06/30 01:22:20;;;;;;;8.65;2.10;;;;;;;15.48;100.00;101282.19;5014334;28;20053;-58
2023/06/30 01:24:54;;;;;;;11.77;2.80;;;;;;;15.42;100.00;101287.97;5014506;28;20046;-58
2023/06/30 01:27:24;;;;;;;7.07;2.60;;;;;;;15.27;100.00;101289.16;5010145;28;20088;-59
2023/06/30 01:29:53;;;;;;;10.05;3.00;;;;;;;15.25;100.00;101286.63;5010161;28;20493;-58
2023/06/30 01:32:22;;;;;;;9.80;2.70;;;;;;;15.13;100.00;101288.41;5009596;28;20516;-58
2023/06/30 01:34:51;;;;;;;10.18;2.67;;;;;;;15.08;100.00;101289.75;5011055;28;20034;-58
2023/06/30 01:37:20;;;;;;;9.30;2.50;;;;;;;15.02;100.00;101283.97;5012156;28;20054;-58
2023/06/30 01:39:48;;;;;;;11.77;2.70;;;;;;;14.96;100.00;101295.03;5025934;28;20458;-59
2023/06/30 01:42:18;;;;;;;8.82;2.80;;;;;;;15.02;100.00;101288.41;5008488;28;20061;-57
2023/06/30 01:44:50;;;;;;;11.02;2.53;;;;;;;15.02;100.00;101297.22;5008407;28;20057;-59
2023/06/30 01:47:18;;;;;;;7.65;2.60;;;;;;;15.01;100.00;101292.03;5016540;28;20047;-57
2023/06/30 01:49:47;;;;;;;12.80;3.25;;;;;;;14.89;100.00;101296.47;5019209;28;20046;-58
2023/06/30 01:52:16;;;;;;;12.90;2.88;;;;;;;14.97;100.00;101286.13;5013520;28;20038;-62
2023/06/30 01:54:46;;;;;;;9.60;2.60;;;;;;;14.94;100.00;101281.06;5010897;28;20048;-58
2023/06/30 01:57:14;;;;;;;9.68;3.08;;;;;;;14.84;100.00;101286.22;5009274;28;20405;-58
2023/06/30 01:59:43;;;;;;;8.50;2.72;;;;;;;14.84;100.00;101283.56;5009563;28;20497;-58
2023/06/30 02:02:13;;;;;;;9.23;3.00;;;;;;;14.74;100.00;101292.31;5008901;28;20962;-58
2023/06/30 02:04:41;;;;;;;7.68;2.80;;;;;;;14.81;100.00;101277.69;5008418;28;20038;-58
2023/06/30 02:07:09;;;;;;;10.82;2.85;;;;;;;14.75;100.00;101284.28;5008489;28;20057;-59
2023/06/30 02:09:38;;;;;;;12.73;3.00;;;;;;;14.70;100.00;101281.16;5009658;28;20042;-58
2023/06/30 02:12:16;;;;;;;10.45;2.70;;;;;;;14.74;100.00;101277.31;5007864;28;20161;-59
2023/06/30 02:14:47;;;;;;;10.13;2.75;;;;;;;14.71;100.00;101274.88;5009005;28;20065;-59
2023/06/30 02:17:17;;;;;;;11.55;2.60;;;;;;;14.67;100.00;101276.91;5008812;28;20468;-59
2023/06/30 02:19:45;;;;;;;7.10;2.83;;;;;;;14.68;100.00;101277.75;5009483;28;20072;-61
2023/06/30 02:22:13;;;;;;;8.52;2.88;;;;;;;14.68;100.00;101278.63;5013432;28;20041;-59
2023/06/30 02:24:44;;;;;;;6.65;2.42;;;;;;;14.59;100.00;101279.28;5014234;28;20117;-59
2023/06/30 02:27:12;;;;;;;7.85;2.60;;;;;;;14.66;100.00;101287.63;5010086;28;20046;-58
2023/06/30 02:29:41;;;;;;;12.52;3.15;;;;;;;14.64;100.00;101287.75;5019687;28;20054;-59
2023/06/30 02:32:09;;;;;;;9.63;2.60;;;;;;;14.60;100.00;101291.56;5016360;28;20037;-58
2023/06/30 02:34:39;;;;;;;9.45;2.72;;;;;;;14.58;100.00;101284.69;5009272;28;20045;-58
2023/06/30 02:37:07;;;;;;;9.07;3.38;;;;;;;14.45;100.00;101282.97;5025552;28;20048;-58
2023/06/30 02:39:36;;;;;;;11.48;2.85;;;;;;;14.49;100.00;101287.06;5015327;28;20400;-57
2023/06/30 02:42:04;;;;;;;11.18;3.42;;;;;;;14.42;100.00;101288.47;5010923;28;20104;-58
2023/06/30 02:44:35;;;;;;;10.23;2.72;;;;;;;14.49;100.00;101288.84;5010606;28;20511;-58
2023/06/30 02:47:04;;;;;;;10.45;3.00;;;;;;;14.49;100.00;101295.00;5018115;28;20500;-59
2023/06/30 02:49:33;;;;;;;12.20;3.53;;;;;;;14.37;100.00;101295.91;5007267;28;20467;-59
2023/06/30 02:52:03;;;;;;;10.63;2.58;;;;;;;14.34;100.00;101293.47;5023647;28;20045;-59
2023/06/30 02:54:31;;;;;;;9.32;3.13;;;;;;;14.40;100.00;101294.81;5005512;28;20042;-59
2023/06/30 02:56:59;;;;;;;9.93;3.17;;;;;;;14.38;100.00;101292.28;5018009;28;20045;-57
2023/06/30 02:59:28;;;;;;;10.05;2.72;;;;;;;14.34;100.00;101291.69;5025953;28;20144;-57
2023/06/30 03:01:56;;;;;;;11.45;2.70;;;;;;;14.31;100.00;101297.19;5022963;28;20107;-57
2023/06/30 03:04:24;;;;;;;8.90;3.03;;;;;;;14.29;100.00;101299.13;5023324;28;20645;-56
2023/06/30 03:06:53;;;;;;;8.52;2.75;;;;;;;14.27;100.00;101301.00;5013361;28;20046;-57
2023/06/30 03:09:22;;;;;;;9.48;2.90;;;;;;;14.20;100.00;101305.06;5010095;28;20062;-58
2023/06/30 03:11:51;;;;;;;8.88;3.08;;;;;;;14.19;100.00;101306.88;5021464;28;20033;-58
2023/06/30 03:14:19;;;;;;;12.30;3.25;;;;;;;14.17;100.00;101306.16;5018479;28;20038;-57
2023/06/30 03:16:47;;;;;;;13.43;3.00;;;;;;;14.14;100.00;101311.66;5017362;28;20034;-58
2023/06/30 03:19:16;;;;;;;9.75;3.13;;;;;;;14.06;100.00;101308.72;5023857;28;20551;-57
2023/06/30 03:21:44;;;;;;;10.10;2.83;;;;;;;14.00;100.00;101304.75;5030712;28;20041;-59
2023/06/30 03:24:12;;;;;;;9.75;3.08;;;;;;;14.00;100.00;101307.38;5008035;28;21183;-59
2023/06/30 03:26:42;;;;;;;8.75;2.88;;;;;;;14.00;100.00;101306.53;5026933;28;20061;-59
2023/06/30 03:29:10;;;;;;;7.03;2.58;;;;;;;13.90;100.00;101305.50;5011991;28;20045;-59
2023/06/30 03:31:39;;;;;;;11.35;3.38;;;;;;;13.88;100.00;101308.28;5012109;28;20057;-59
2023/06/30 03:34:07;;;;;;;9.40;2.95;;;;;;;13.84;100.00;101309.44;5027244;28;20048;-58
2023/06/30 03:36:35;;;;;;;7.68;2.58;;;;;;;13.82;100.00;101306.06;5009576;28;20049;-59
2023/06/30 03:39:05;;;;;;;9.75;2.80;;;;;;;13.81;100.00;101299.06;5008056;28;20056;-58
2023/06/30 03:41:33;;;;;;;10.88;3.45;;;;;;;13.77;100.00;101305.53;5008717;28;20062;-57
2023/06/30 03:44:03;;;;;;;12.48;3.25;;;;;;;13.78;100.00;101299.28;5007382;28;20050;-57
2023/06/30 03:46:31;;;;;;;12.35;3.67;;;;;;;13.73;100.00;101299.63;5008647;28;20045;-57
2023/06/30 03:48:59;;;;;;;8.95;3.45;;;;;;;13.69;100.00;101291.06;5010608;28;20057;-57
2023/06/30 03:51:27;;;;;;;10.98;3.58;;;;;;;13.65;100.00;101297.53;5012293;28;20049;-57
2023/06/30 03:53:56;;;;;;;9.02;3.13;;;;;;;13.63;100.00;101293.31;5007582;28;20052;-57
2023/06/30 03:56:24;;;;;;;10.57;3.85;;;;;;;13.64;100.00;101297.63;5008130;28;20053;-58
2023/06/30 03:58:52;;;;;;;11.55;3.33;;;;;;;13.62;100.00;101292.47;5008217;28;20405;-58
2023/06/30 04:01:22;;;;;;;11.63;3.25;;;;;;;13.63;100.00;101299.44;5008291;28;20044;-58
2023/06/30 04:03:51;;;;;;;9.13;3.22;;;;;;;13.64;100.00;101292.34;5007967;28;20050;-58
2023/06/30 04:06:20;;;;;;;11.55;3.38;;;;;;;13.63;100.00;101288.03;5006190;28;20481;-58
2023/06/30 04:08:51;;;;;;;10.45;3.53;;;;;;;13.56;100.00;101294.69;5007585;28;20058;-58
2023/06/30 04:11:19;;;;;;;7.65;3.22;;;;;;;13.47;100.00;101283.81;5008421;28;20050;-58
2023/06/30 04:13:48;;;;;;;9.23;3.05;;;;;;;13.44;100.00;101280.53;5007120;28;20046;-59
2023/06/30 04:16:17;;;;;;;9.70;2.78;;;;;;;13.46;100.00;101279.50;5006746;28;20124;-58
2023/06/30 04:18:47;;;;;;;8.18;3.10;;;;;;;13.38;100.00;101271.25;5007904;28;20085;-57
2023/06/30 04:21:17;;;;;;;8.88;3.00;;;;;;;13.40;100.00;101284.34;5007193;28;20144;-58
2023/06/30 04:23:45;;;;;;;7.95;3.05;;;;;;;13.45;100.00;101275.16;5007833;28;20137;-59
2023/06/30 04:26:17;;;;;;;8.05;3.05;;;;;;;13.45;100.00;101269.03;5007224;28;20081;-58
2023/06/30 04:28:46;;;;;;;6.78;3.20;;;;;;;13.31;100.00;101273.44;5015802;28;20051;-58
2023/06/30 04:31:14;;;;;;;9.93;3.47;;;;;;;13.40;100.00;101271.16;5012573;28;20054;-58
2023/06/30 04:33:43;;;;;;;10.65;3.42;;;;;;;13.42;100.00;101275.38;5007452;28;20420;-58
2023/06/30 04:36:12;;;;;;;10.27;3.15;;;;;;;13.46;100.00;101273.38;5007308;28;20053;-58
2023/06/30 04:38:42;;;;;;;9.88;2.95;;;;;;;13.51;100.00;101273.88;5008002;28;20061;-57
2023/06/30 04:41:10;;;;;;;9.77;3.22;;;;;;;13.46;100.00;101273.38;5006005;28;20876;-58
2023/06/30 04:43:39;;;;;;;8.90;2.90;;;;;;;13.42;100.00;101274.53;5007140;28;20056;-58
2023/06/30 04:46:07;;;;;;;8.52;3.78;;;;;;;13.47;100.00;101272.41;5005537;28;20398;-59
2023/06/30 04:48:36;;;;;;;10.80;3.53;;;;;;;13.50;100.00;101275.69;5007593;28;20053;-58
2023/06/30 04:51:04;;;;;;;10.93;3.58;;;;;;;13.48;100.00;101271.44;5007623;28;20120;-58
2023/06/30 04:53:34;;;;;;;7.05;2.90;;;;;;;13.55;100.00;101275.34;5007258;28;20112;-61
2023/06/30 04:56:03;;;;;;;7.82;2.97;;;;;;;13.67;100.00;101281.56;5007616;28;20120;-58
2023/06/30 04:58:31;;;;;;;8.98;2.97;;;;;;;13.66;100.00;101280.72;5006463;28;20042;-58
2023/06/30 05:00:59;;;;;;;10.13;3.47;;;;;;;13.64;100.00;101287.06;5007163;28;20054;-58
2023/06/30 05:03:28;;;;;;;8.35;2.78;;;;;;;13.81;100.00;101276.13;5006719;28;20045;-59
2023/06/30 05:05:58;;;;;;;10.85;3.25;;;;;;;13.84;100.00;101288.28;5007104;28;20034;-59
2023/06/30 05:08:26;;;;;;;10.23;3.00;;;;;;;13.83;100.00;101281.31;5006763;28;20066;-58
2023/06/30 05:10:56;;;;;;;9.07;2.75;;;;;;;13.88;100.00;101288.91;5005890;28;20053;-58
2023/06/30 05:13:26;;;;;;;6.70;2.42;;;;;;;13.94;100.00;101288.47;5008534;28;20046;-57
2023/06/30 05:15:55;;;;;;;7.40;2.80;;;;;;;14.00;100.00;101291.53;5010369;28;20068;-59
2023/06/30 05:18:23;;;;;;;10.77;2.72;;;;;;;14.06;100.00;101292.00;5010397;28;20137;-59
2023/06/30 05:20:52;;;;;;;9.23;2.67;;;;;;;14.15;100.00;101296.63;5011306;28;20493;-57
2023/06/30 05:23:20;;;;;;;9.30;2.78;;;;;;;14.21;100.00;101296.19;5010412;28;20561;-59
2023/06/30 05:25:49;;;;;;;9.25;2.83;;;;;;;14.27;100.00;101285.16;5009830;28;20070;-59
2023/06/30 05:28:18;;;;;;;7.25;3.03;;;;;;;14.33;100.00;101297.09;5009772;28;20045;-59
2023/06/30 05:30:47;;;;;;;9.60;2.95;;;;;;;14.42;100.00;101287.63;5011020;28;20050;-58
2023/06/30 05:33:15;;;;;;;8.13;2.28;;;;;;;14.52;100.00;101293.94;5009234;28;20046;-58
2023/06/30 05:35:43;;;;;;;5.82;2.10;;;;;;;14.63;100.00;101295.78;5011308;28;20363;-59
2023/06/30 05:38:12;;;;;;;7.07;1.88;;;;;;;14.71;100.00;101290.75;5009665;28;20053;-58
2023/06/30 05:40:40;;;;;;;6.40;2.50;;;;;;;14.80;100.00;101294.53;5011215;28;20908;-59
2023/06/30 05:43:09;;;;;;;6.45;2.20;;;;;;;14.89;100.00;101291.19;5007727;28;20045;-59
2023/06/30 05:45:39;;;;;;;8.45;2.15;;;;;;;15.00;100.00;101293.84;5010991;28;20050;-58
2023/06/30 05:48:08;;;;;;;7.18;2.38;;;;;;;15.13;100.00;101298.19;5018732;28;20390;-59
2023/06/30 05:50:36;;;;;;;8.00;2.10;;;;;;;15.23;100.00;101301.81;5012046;28;20046;-57
2023/06/30 05:53:04;;;;;;;9.80;2.05;;;;;;;15.33;100.00;101310.72;5017918;28;20509;-58
2023/06/30 05:55:32;;;;;;;11.80;2.33;;;;;;;15.40;100.00;101307.59;5014808;28;20054;-58
2023/06/30 05:58:01;;;;;;;6.22;1.95;;;;;;;15.51;100.00;101304.94;5021438;28;20057;-59
2023/06/30 06:00:29;;;;;;;7.53;1.83;;;;;;;15.60;100.00;101306.03;5018878;28;20424;-57
2023/06/30 06:03:01;;;;;;;6.78;1.95;;;;;;;15.67;100.00;101313.38;5027195;28;20388;-58
2023/06/30 06:05:29;;;;;;;7.18;1.88;;;;;;;15.75;100.00;101310.13;5014478;28;20060;-58
2023/06/30 06:07:58;;;;;;;10.85;2.20;;;;;;;15.88;100.00;101310.00;5016113;28;20049;-59
2023/06/30 06:10:26;;;;;;;9.25;2.03;;;;;;;16.07;100.00;101308.53;5010536;28;20508;-60
2023/06/30 06:12:54;;;;;;;10.02;2.10;;;;;;;16.11;100.00;101308.16;5008954;28;20052;-59
2023/06/30 06:15:23;;;;;;;7.78;1.90;;;;;;;16.21;100.00;101316.19;5014693;28;20041;-58
2023/06/30 06:17:51;;;;;;;5.25;1.67;;;;;;;16.32;100.00;101308.22;5010680;28;20093;-58
2023/06/30 06:20:21;;;;;;;7.68;2.15;;;;;;;16.44;100.00;101300.19;5016139;28;20040;-59
2023/06/30 06:22:49;;;;;;;8.85;2.13;;;;;;;16.53;100.00;101302.91;5019175;28;20050;-58
2023/06/30 06:25:18;;;;;;;6.57;1.88;;;;;;;16.66;100.00;101308.06;5009108;28;20050;-57
2023/06/30 06:27:46;;;;;;;6.60;1.80;;;;;;;16.80;100.00;101314.03;5016581;28;20107;-57
2023/06/30 06:30:14;;;;;;;13.13;2.00;;;;;;;16.95;100.00;101304.78;5008509;28;20042;-56
2023/06/30 06:32:43;;;;;;;11.00;2.35;;;;;;;17.08;100.00;101306.41;5019447;28;20541;-58
2023/06/30 06:35:12;;;;;;;8.13;1.70;;;;;;;17.16;100.00;101304.75;5007985;28;20173;-57
2023/06/30 06:37:42;;;;;;;7.50;1.95;;;;;;;17.28;100.00;101305.53;5009253;28;20061;-58
2023/06/30 06:40:12;;;;;;;5.50;1.58;;;;;;;17.37;100.00;101309.22;5008792;28;20069;-58
2023/06/30 06:42:41;;;;;;;6.72;2.05;;;;;;;17.24;100.00;101309.44;5008695;28;20053;-56
2023/06/30 06:45:09;;;;;;;5.78;2.10;;;;;;;17.24;100.00;101304.09;5008255;28;20052;-59
2023/06/30 06:48:15;;;;;;;7.30;1.88;;;;;;;17.45;100.00;101300.56;5009808;28;20038;-57
2023/06/30 06:50:43;;;;;;;8.60;1.75;;;;;;;17.50;100.00;101308.97;5015408;28;20056;-57
2023/06/30 06:53:16;;;;;;;9.90;1.88;;;;;;;17.65;100.00;101312.94;5008848;28;20049;-58
2023/06/30 06:55:44;;;;;;;5.68;1.83;;;;;;;17.82;100.00;101318.59;5013974;28;20750;-57
2023/06/30 06:58:13;;;;;;;11.43;1.95;;;;;;;17.95;100.00;101313.06;5017038;28;20699;-57
2023/06/30 07:00:42;;;;;;;6.80;1.75;;;;;;;18.05;100.00;101313.91;5012442;28;20054;-57
2023/06/30 07:03:11;;;;;;;8.68;1.65;;;;;;;18.19;100.00;101320.69;5009984;28;20129;-57
2023/06/30 07:05:40;;;;;;;7.65;1.77;;;;;;;18.23;100.00;101320.25;5014839;28;20053;-57
2023/06/30 07:08:08;;;;;;;6.03;2.30;;;;;;;18.37;100.00;101323.50;5014817;28;20124;-57
2023/06/30 07:10:38;;;;;;;7.10;1.60;;;;;;;18.58;100.00;101321.53;5015138;28;20038;-56
2023/06/30 07:13:07;;;;;;;8.60;1.92;;;;;;;18.66;100.00;101318.16;5007009;28;20405;-57
2023/06/30 07:15:36;;;;;;;7.45;1.83;;;;;;;18.81;100.00;101320.38;5017546;28;20439;-58
2023/06/30 07:18:04;;;;;;;5.15;1.80;;;;;;;18.90;100.00;101315.06;5009104;28;20046;-57
2023/06/30 07:20:33;;;;;;;7.07;1.77;;;;;;;19.11;100.00;101318.53;5013579;28;20048;-57
2023/06/30 07:23:01;;;;;;;6.30;1.77;;;;;;;19.32;100.00;101318.31;5020504;28;20100;-57
2023/06/30 07:25:30;;;;;;;7.20;1.70;;;;;;;19.38;100.00;101318.59;5011605;28;20046;-58
2023/06/30 07:27:59;;;;;;;4.50;1.48;;;;;;;19.44;100.00;101314.47;5023048;28;20115;-59
2023/06/30 07:30:28;;;;;;;5.97;1.80;;;;;;;19.55;100.00;101319.66;5025932;28;20049;-58
2023/06/30 07:32:57;;;;;;;7.38;1.58;;;;;;;19.39;100.00;101309.59;5005336;28;20064;-59
2023/06/30 07:35:25;;;;;;;6.25;1.52;;;;;;;19.51;100.00;101312.06;5017509;28;20040;-59
2023/06/30 07:37:54;;;;;;;4.60;1.40;;;;;;;19.53;100.00;101312.78;5023890;28;20115;-60
2023/06/30 07:40:22;;;;;;;6.15;1.70;;;;;;;19.67;100.00;101311.44;5016005;28;20048;-58
2023/06/30 07:43:03;;;;;;;6.70;1.63;;;;;;;20.00;100.00;101299.34;5020055;28;20048;-59
2023/06/30 07:45:32;;;;;;;8.00;1.40;;;;;;;20.02;100.00;101305.38;5022434;28;20041;-59
2023/06/30 07:48:00;;;;;;;6.75;1.77;;;;;;;20.06;100.00;101309.41;5010706;28;20489;-58
2023/06/30 07:50:29;;;;;;;4.88;1.20;;;;;;;20.25;100.00;101304.94;5016443;28;20049;-58
2023/06/30 07:52:57;;;;;;;5.43;1.75;;;;;;;20.37;100.00;101309.06;5023803;28;20050;-59
2023/06/30 07:55:26;;;;;;;3.00;1.17;;;;;;;20.72;100.00;101307.38;5017713;28;20133;-58
2023/06/30 07:57:54;;;;;;;7.38;1.30;;;;;;;20.68;100.00;101306.00;5004628;28;20042;-59
2023/06/30 08:00:28;;;;;;;7.40;1.40;;;;;;;20.84;100.00;101310.63;5021192;28;20041;-58
2023/06/30 08:02:57;;;;;;;3.42;1.20;;;;;;;20.83;100.00;101306.25;5026273;28;20543;-61
2023/06/30 08:05:25;;;;;;;4.35;1.42;;;;;;;21.12;100.00;101318.50;5027890;28;20056;-58
2023/06/30 08:07:54;;;;;;;5.50;1.40;;;;;;;21.11;100.00;101306.94;5025410;28;20484;-58
2023/06/30 08:10:22;;;;;;;5.72;1.40;;;;;;;21.24;100.00;101313.69;5027817;28;20046;-58
2023/06/30 08:12:50;;;;;;;5.65;1.33;;;;;;;21.26;100.00;101298.34;5027672;28;20052;-58
2023/06/30 08:15:19;;;;;;;6.43;1.80;;;;;;;21.45;100.00;101298.09;5029404;28;20045;-58
2023/06/30 08:17:48;;;;;;;4.90;1.40;;;;;;;21.79;99.49;101296.41;5031660;28;20038;-58
2023/06/30 08:20:25;;;;;;;5.40;1.50;;;;;;;21.94;99.34;101304.66;5028847;28;20065;-59
2023/06/30 08:22:54;;;;;;;3.90;1.02;;;;;;;21.91;93.27;101303.16;5027069;28;20049;-58
2023/06/30 08:25:23;;;;;;;5.82;1.67;;;;;;;21.94;90.35;101301.97;5031255;28;20500;-59
2023/06/30 08:27:52;;;;;;;5.35;1.35;;;;;;;22.15;92.21;101298.00;5029079;28;20496;-58
2023/06/30 08:30:24;;;;;;;4.45;1.45;;;;;;;21.97;83.71;101301.66;5027129;28;20125;-58
2023/06/30 08:32:54;;;;;;;6.53;1.48;;;;;;;22.48;88.26;101298.06;5026277;28;20080;-59
2023/06/30 08:35:24;;;;;;;5.97;1.20;;;;;;;22.26;84.73;101298.53;5027730;28;20045;-58
2023/06/30 08:37:53;;;;;;;3.85;1.20;;;;;;;21.89;85.79;101298.94;5026628;28;20033;-58
2023/06/30 08:40:26;;;;;;;6.80;1.30;;;;;;;22.31;82.60;101294.50;5027740;28;20061;-58
2023/06/30 08:42:59;;;;;;;7.30;1.35;;;;;;;22.42;81.25;101303.06;5026975;28;20092;-58
2023/06/30 08:45:27;;;;;;;4.35;1.23;;;;;;;22.68;78.15;101294.03;5030393;28;20493;-58
2023/06/30 08:48:04;;;;;;;7.05;1.48;;;;;;;22.61;75.44;101288.50;5032067;28;20135;-60
2023/06/30 08:50:34;;;;;;;3.60;0.88;;;;;;;22.81;76.93;101281.94;5033258;28;20034;-58
2023/06/30 08:53:03;;;;;;;4.10;1.30;;;;;;;23.17;76.28;101279.72;5030396;28;20400;-59
2023/06/30 08:55:32;;;;;;;5.47;1.27;;;;;;;23.36;70.77;101270.41;5031294;28;20076;-59
2023/06/30 08:58:00;;;;;;;4.47;1.00;;;;;;;23.33;70.40;101273.47;5033728;28;20099;-58
2023/06/30 09:00:40;;;;;;;3.53;1.00;;;;;;;23.43;70.15;101268.69;5034671;28;20127;-59
2023/06/30 09:03:10;;;;;;;3.85;1.00;;;;;;;23.52;70.18;101265.97;5028583;28;20103;-58
2023/06/30 09:05:42;;;;;;;3.17;0.90;;;;;;;23.83;68.51;101267.84;5033483;28;20493;-57
2023/06/30 09:08:17;;;;;;;4.45;1.10;;;;;;;23.94;71.68;101264.75;5034517;28;20056;-58
2023/06/30 09:10:48;;;;;;;5.85;1.40;;;;;;;23.94;62.13;101257.56;5034434;28;20404;-58
2023/06/30 09:13:19;;;;;;;6.10;1.15;;;;;;;24.18;65.68;101262.94;5034653;28;20401;-58
2023/06/30 09:15:48;;;;;;;5.70;1.27;;;;;;;24.48;64.92;101259.31;5034689;28;20045;-58
2023/06/30 09:18:18;;;;;;;4.10;1.45;;;;;;;24.34;60.17;101254.75;5034651;28;20116;-58
2023/06/30 09:20:47;;;;;;;3.70;1.20;;;;;;;24.34;60.18;101254.75;5034361;28;20060;-58
2023/06/30 09:23:16;;;;;;;3.08;1.10;;;;;;;24.60;60.50;101256.19;5030427;28;20046;-58
2023/06/30 09:25:44;;;;;;;3.10;1.30;;;;;;;24.79;60.27;101250.31;5031385;28;20562;-60
2023/06/30 09:28:14;;;;;;;5.72;1.08;;;;;;;24.94;59.77;101244.09;5032747;28;20037;-58
2023/06/30 09:30:47;;;;;;;4.75;1.25;;;;;;;24.90;60.18;101253.56;5034165;28;20060;-59
2023/06/30 09:33:20;;;;;;;7.90;1.42;;;;;;;24.96;57.17;101250.13;5029571;28;20496;-59
2023/06/30 09:35:51;;;;;;;3.38;1.02;;;;;;;25.25;59.07;101246.59;5030921;28;20534;-59
2023/06/30 09:38:21;;;;;;;4.75;1.25;;;;;;;24.87;56.12;101243.16;5032917;28;20049;-59
2023/06/30 09:40:50;;;;;;;3.75;1.10;;;;;;;24.84;57.78;101236.28;5029940;28;20070;-58
2023/06/30 09:43:20;;;;;;;4.57;1.30;;;;;;;24.90;59.03;101237.44;5029592;28;20493;-59
2023/06/30 09:45:55;;;;;;;4.32;1.30;;;;;;;24.68;56.57;101240.00;5030019;28;20053;-58
2023/06/30 09:48:30;;;;;;;3.92;1.27;;;;;;;24.85;57.10;101243.34;5029411;28;20046;-59
2023/06/30 09:51:00;;;;;;;4.63;1.20;;;;;;;24.84;56.01;101243.53;5029962;28;20069;-60
2023/06/30 09:53:35;;;;;;;4.72;1.27;;;;;;;24.95;56.67;101245.75;5029579;28;20508;-59
2023/06/30 09:56:04;;;;;;;4.75;1.60;;;;;;;25.26;57.75;101239.34;5030022;28;20064;-59
2023/06/30 09:58:33;;;;;;;4.18;1.42;;;;;;;25.47;57.91;101239.44;5032480;28;20037;-57
2023/06/30 10:01:01;;;;;;;4.32;1.33;;;;;;;25.34;55.08;101236.56;5032265;28;20052;-57
2023/06/30 10:03:31;;;;;;;2.75;1.50;;;;;;;24.82;54.37;101240.22;5032233;28;20405;-57
2023/06/30 10:05:59;;;;;;;5.20;1.30;;;;;;;24.96;54.72;101240.22;5033487;28;20132;-57
2023/06/30 10:08:29;;;;;;;7.07;1.55;;;;;;;24.86;57.17;101233.44;5032957;28;20145;-57
2023/06/30 10:10:57;;;;;;;4.10;1.55;;;;;;;24.90;57.18;101234.75;5033561;28;20053;-58
2023/06/30 10:13:27;;;;;;;2.72;1.23;;;;;;;25.00;56.26;101229.91;5033361;28;20057;-58
2023/06/30 10:15:57;;;;;;;4.18;1.15;;;;;;;24.79;58.45;101230.66;5032237;28;20099;-60
2023/06/30 10:18:25;;;;;;;3.88;1.40;;;;;;;24.76;60.85;101234.53;5033612;28;20396;-57
2023/06/30 10:20:56;;;;;;;3.88;1.30;;;;;;;24.68;61.78;101226.56;5031026;28;20045;-59
2023/06/30 10:23:27;;;;;;;3.85;1.15;;;;;;;24.70;60.12;101231.75;5028819;28;20445;-59
2023/06/30 10:25:56;;;;;;;5.03;1.17;;;;;;;24.58;61.90;101225.94;5033350;28;20077;-59
2023/06/30 10:28:24;;;;;;;5.65;1.52;;;;;;;24.31;60.32;101225.56;5031886;28;20079;-58
2023/06/30 10:30:53;;;;;;;5.95;1.10;;;;;;;24.50;62.98;101223.34;5029184;28;20061;-57
2023/06/30 10:33:23;;;;;;;7.15;1.70;;;;;;;24.47;60.15;101220.03;5031293;28;20041;-58
2023/06/30 10:35:52;;;;;;;4.50;1.30;;;;;;;24.67;59.68;101218.69;5030730;28;20041;-58
2023/06/30 10:38:22;;;;;;;6.28;1.65;;;;;;;24.78;59.38;101220.91;5028876;28;20127;-57
2023/06/30 10:40:50;;;;;;;6.28;1.80;;;;;;;24.60;58.61;101218.56;5029613;28;20049;-59
2023/06/30 10:43:21;;;;;;;6.22;1.30;;;;;;;24.78;61.24;101212.84;5030725;28;20076;-58
2023/06/30 10:46:06;;;;;;;3.35;1.55;;;;;;;24.41;59.77;101214.53;5029198;28;20057;-57
2023/06/30 10:48:41;;;;;;;6.38;1.50;;;;;;;24.41;58.87;101215.38;5029272;28;20083;-59
2023/06/30 10:51:12;;;;;;;4.90;1.67;;;;;;;24.59;59.36;101214.19;5028768;28;20050;-58
2023/06/30 10:53:45;;;;;;;6.40;1.30;;;;;;;24.39;62.40;101214.72;5028829;28;20095;-57
2023/06/30 10:56:13;;;;;;;6.25;1.50;;;;;;;24.36;60.87;101211.56;5028894;28;20056;-57
2023/06/30 10:58:42;;;;;;;3.60;1.20;;;;;;;24.57;60.89;101218.91;5028533;28;20125;-57
2023/06/30 11:01:11;;;;;;;6.25;1.70;;;;;;;24.46;58.08;101218.34;5030903;28;20060;-58
2023/06/30 11:04:12;;;;;;;9.75;2.10;;;;;;;24.78;61.82;101221.72;5028718;28;20053;-58
2023/06/30 11:06:41;;;;;;;6.07;1.58;;;;;;;25.11;58.38;101209.75;5005792;28;20055;-57
2023/06/30 11:09:12;;;;;;;4.72;1.60;;;;;;;25.41;58.55;101207.88;5027905;28;20049;-58
2023/06/30 11:11:49;;;;;;;6.63;1.50;;;;;;;25.59;59.77;101203.94;5028708;28;20053;-58
2023/06/30 11:14:33;;;;;;;4.25;1.30;;;;;;;26.06;60.35;101205.25;5028263;28;20504;-58
2023/06/30 11:17:04;;;;;;;6.22;1.75;;;;;;;26.17;55.63;101206.59;5026485;28;20080;-57
2023/06/30 11:19:32;;;;;;;6.55;1.90;;;;;;;25.84;56.29;101199.03;5030969;28;20049;-57
2023/06/30 11:22:22;;;;;;;4.15;1.20;;;;;;;26.25;57.30;101197.53;5028636;28;20068;-61
2023/06/30 11:24:53;;;;;;;4.20;1.50;;;;;;;26.59;55.14;101204.00;5029345;28;20049;-59
2023/06/30 11:27:21;;;;;;;5.45;1.60;;;;;;;27.08;53.88;101184.16;5028620;28;20056;-58
2023/06/30 11:29:51;;;;;;;4.00;1.38;;;;;;;27.58;54.99;101183.09;5026525;28;20045;-59